createdAt,value
2023-04-16T00:00:57.624Z,102605.85
2023-04-16T00:03:33.708Z,102607.27
2023-04-16T00:06:01.900Z,102611.36
2023-04-16T00:08:30.275Z,102606.69
2023-04-16T00:10:58.329Z,102602.76
2023-04-16T00:13:27.628Z,102597.92
2023-04-16T00:15:55.824Z,102600.07
2023-04-16T00:18:23.996Z,102599.86
2023-04-16T00:20:52.374Z,102607.19
2023-04-16T00:23:21.250Z,102616.30
2023-04-16T00:25:49.345Z,102621.83
2023-04-16T00:28:17.406Z,102620.39
2023-04-16T00:30:46.213Z,102612.86
2023-04-16T00:33:14.368Z,102614.48
2023-04-16T00:35:42.178Z,102612.13
2023-04-16T00:38:10.080Z,102613.38
2023-04-16T00:40:38.491Z,102608.90
2023-04-16T00:43:06.654Z,102604.42
2023-04-16T00:45:35.135Z,102590.09
2023-04-16T00:48:04.215Z,102582.21
2023-04-16T00:50:33.852Z,102577.55
2023-04-16T00:53:02.531Z,102574.34
2023-04-16T00:55:31.570Z,102574.50
2023-04-16T00:57:59.444Z,102572.16
2023-04-16T01:00:27.697Z,102574.30
2023-04-16T01:02:56.221Z,102573.77
2023-04-16T01:05:25.135Z,102576.79
2023-04-16T01:07:54.131Z,102570.86
2023-04-16T01:10:22.075Z,102573.55
2023-04-16T01:12:50.375Z,102575.33
2023-04-16T01:15:18.553Z,102576.56
2023-04-16T01:17:47.070Z,102578.16
2023-04-16T01:20:15.108Z,102582.96
2023-04-16T01:22:42.990Z,102584.93
2023-04-16T01:25:14.866Z,102580.81
2023-04-16T01:27:42.907Z,102577.93
2023-04-16T01:30:11.698Z,102580.96
2023-04-16T01:32:48.698Z,102583.45
2023-04-16T01:35:18.275Z,102586.13
2023-04-16T01:37:46.252Z,102585.38
2023-04-16T01:40:14.241Z,102586.09
2023-04-16T01:42:42.290Z,102583.92
2023-04-16T01:45:11.217Z,102581.60
2023-04-16T01:47:39.559Z,102583.55
2023-04-16T01:50:08.143Z,102580.86
2023-04-16T01:52:37.133Z,102573.67
2023-04-16T01:55:06.029Z,102567.95
2023-04-16T01:57:33.934Z,102566.85
2023-04-16T02:00:03.279Z,102575.77
2023-04-16T02:02:33.102Z,102576.30
2023-04-16T02:05:02.081Z,102580.75
2023-04-16T02:07:31.911Z,102585.91
2023-04-16T02:09:59.912Z,102583.02
2023-04-16T02:12:30.007Z,102588.73
2023-04-16T02:14:58.480Z,102585.32
2023-04-16T02:17:28.318Z,102585.30
2023-04-16T02:20:09.555Z,102583.48
2023-04-16T02:22:40.344Z,102585.44
2023-04-16T02:25:08.467Z,102587.73
2023-04-16T02:27:36.856Z,102582.71
2023-04-16T02:30:15.790Z,102583.05
2023-04-16T02:32:43.919Z,102579.28
2023-04-16T02:35:12.028Z,102579.11
2023-04-16T02:37:40.922Z,102574.96
2023-04-16T02:40:09.851Z,102578.17
2023-04-16T02:42:37.887Z,102573.50
2023-04-16T02:45:07.590Z,102577.95
2023-04-16T02:47:35.826Z,102572.77
2023-04-16T02:50:04.282Z,102576.13
2023-04-16T02:52:33.137Z,102570.22
2023-04-16T02:55:01.628Z,102570.92
2023-04-16T02:57:29.588Z,102569.30
2023-04-16T02:59:57.771Z,102568.92
2023-04-16T03:02:26.604Z,102570.52
2023-04-16T03:04:54.621Z,102567.27
2023-04-16T03:07:22.691Z,102572.45
2023-04-16T03:09:50.770Z,102574.59
2023-04-16T03:12:18.840Z,102574.04
2023-04-16T03:14:46.912Z,102572.95
2023-04-16T03:17:14.878Z,102566.67
2023-04-16T03:19:42.844Z,102570.05
2023-04-16T03:22:10.990Z,102572.55
2023-04-16T03:24:39.088Z,102568.06
2023-04-16T03:27:06.976Z,102569.45
2023-04-16T03:29:38.946Z,102567.48
2023-04-16T03:32:07.809Z,102564.98
2023-04-16T03:34:37.009Z,102561.02
2023-04-16T03:37:06.342Z,102561.52
2023-04-16T03:39:34.807Z,102559.36
2023-04-16T03:42:03.710Z,102549.86
2023-04-16T03:44:31.853Z,102549.11
2023-04-16T03:47:00.441Z,102551.42
2023-04-16T03:49:28.715Z,102548.55
2023-04-16T03:51:57.710Z,102546.91
2023-04-16T03:54:26.919Z,102540.64
2023-04-16T03:57:03.337Z,102551.52
2023-04-16T03:59:31.344Z,102560.60
2023-04-16T04:01:59.377Z,102559.86
2023-04-16T04:04:27.479Z,102555.04
2023-04-16T04:06:55.765Z,102554.84
2023-04-16T04:09:24.280Z,102553.02
2023-04-16T04:11:53.453Z,102548.03
2023-04-16T04:14:21.284Z,102551.20
2023-04-16T04:16:49.278Z,102552.42
2023-04-16T04:19:17.228Z,102553.30
2023-04-16T04:21:45.117Z,102552.55
2023-04-16T04:24:13.084Z,102550.56
2023-04-16T04:26:41.169Z,102556.43
2023-04-16T04:29:09.464Z,102554.27
2023-04-16T04:31:37.720Z,102550.67
2023-04-16T04:34:05.678Z,102548.68
2023-04-16T04:36:33.901Z,102548.13
2023-04-16T04:39:02.129Z,102547.19
2023-04-16T04:41:30.409Z,102550.02
2023-04-16T04:43:58.399Z,102551.77
2023-04-16T04:46:26.809Z,102554.23
2023-04-16T04:48:55.026Z,102557.27
2023-04-16T04:51:23.101Z,102558.48
2023-04-16T04:53:51.350Z,102558.29
2023-04-16T04:56:19.640Z,102558.80
2023-04-16T04:58:47.617Z,102559.84
2023-04-16T05:01:15.762Z,102562.84
2023-04-16T05:03:44.338Z,102569.60
2023-04-16T05:06:12.760Z,102572.79
2023-04-16T05:08:40.928Z,102574.55
2023-04-16T05:11:09.004Z,102578.28
2023-04-16T05:13:37.179Z,102583.05
2023-04-16T05:16:05.793Z,102592.33
2023-04-16T05:18:33.933Z,102589.27
2023-04-16T05:21:02.095Z,102586.76
2023-04-16T05:23:30.104Z,102588.13
2023-04-16T05:25:58.148Z,102584.70
2023-04-16T05:28:26.121Z,102590.73
2023-04-16T05:30:54.114Z,102587.67
2023-04-16T05:33:22.059Z,102581.95
2023-04-16T05:35:50.129Z,102578.16
2023-04-16T05:38:18.109Z,102574.38
2023-04-16T05:40:46.267Z,102572.20
2023-04-16T05:43:14.448Z,102570.92
2023-04-16T05:45:42.595Z,102581.79
2023-04-16T05:48:10.864Z,102580.35
2023-04-16T05:50:39.373Z,102581.23
2023-04-16T05:53:09.422Z,102582.82
2023-04-16T05:55:37.458Z,102581.52
2023-04-16T05:58:05.948Z,102585.06
2023-04-16T06:00:34.212Z,102594.14
2023-04-16T06:03:03.089Z,102601.24
2023-04-16T06:05:31.436Z,102604.43
2023-04-16T06:07:59.579Z,102605.50
2023-04-16T06:10:28.243Z,102611.73
2023-04-16T06:12:56.420Z,102610.81
2023-04-16T06:15:24.489Z,102614.52
2023-04-16T06:17:52.416Z,102616.46
2023-04-16T06:20:20.838Z,102616.45
2023-04-16T06:22:48.887Z,102617.49
2023-04-16T06:25:18.210Z,102620.50
2023-04-16T06:27:46.383Z,102622.96
2023-04-16T06:30:16.260Z,102625.29
2023-04-16T06:32:44.582Z,102625.10
2023-04-16T06:35:12.814Z,102627.58
2023-04-16T06:37:41.329Z,102628.27
2023-04-16T06:40:09.750Z,102624.86
2023-04-16T06:42:37.749Z,102625.20
2023-04-16T06:45:06.774Z,102632.13
2023-04-16T06:47:34.889Z,102635.15
2023-04-16T06:50:02.963Z,102640.85
2023-04-16T06:52:31.187Z,102644.08
2023-04-16T06:54:59.364Z,102641.59
2023-04-16T06:57:27.749Z,102639.81
2023-04-16T06:59:55.917Z,102637.34
2023-04-16T07:02:24.574Z,102640.54
2023-04-16T07:04:52.661Z,102641.65
2023-04-16T07:07:20.761Z,102643.83
2023-04-16T07:09:48.822Z,102644.55
2023-04-16T07:12:16.792Z,102646.02
2023-04-16T07:14:44.857Z,102645.88
2023-04-16T07:17:12.931Z,102642.73
2023-04-16T07:19:41.078Z,102645.08
2023-04-16T07:22:09.159Z,102645.51
2023-04-16T07:24:55.710Z,102645.40
2023-04-16T07:27:23.975Z,102644.72
2023-04-16T07:29:52.135Z,102641.55
2023-04-16T07:32:22.769Z,102641.25
2023-04-16T07:34:51.243Z,102645.61
2023-04-16T07:37:19.222Z,102648.89
2023-04-16T07:39:47.496Z,102649.52
2023-04-16T07:42:15.871Z,102647.46
2023-04-16T07:44:44.557Z,102645.41
2023-04-16T07:47:12.732Z,102645.84
2023-04-16T07:49:40.799Z,102649.48
2023-04-16T07:52:09.103Z,102655.65
2023-04-16T07:54:37.194Z,102661.09
2023-04-16T07:57:05.169Z,102661.52
2023-04-16T07:59:33.189Z,102666.25
2023-04-16T08:02:01.787Z,102668.83
2023-04-16T08:04:30.242Z,102672.33
2023-04-16T08:06:58.415Z,102670.79
2023-04-16T08:09:28.749Z,102665.88
2023-04-16T08:11:57.128Z,102667.73
2023-04-16T08:14:25.098Z,102670.48
2023-04-16T08:16:53.177Z,102666.44
2023-04-16T08:19:21.345Z,102662.05
2023-04-16T08:21:49.315Z,102665.15
2023-04-16T08:24:17.590Z,102660.95
2023-04-16T08:26:45.665Z,102662.11
2023-04-16T08:29:13.842Z,102663.10
2023-04-16T08:31:42.179Z,102662.16
2023-04-16T08:34:11.834Z,102656.70
2023-04-16T08:36:41.530Z,102661.62
2023-04-16T08:39:10.023Z,102663.51
2023-04-16T08:41:42.291Z,102662.52
2023-04-16T08:44:21.617Z,102661.74
2023-04-16T08:46:54.788Z,102658.25
2023-04-16T08:49:24.413Z,102661.02
2023-04-16T08:51:56.593Z,102657.01
2023-04-16T08:54:46.556Z,102654.60
2023-04-16T08:57:30.616Z,102656.33
2023-04-16T08:59:59.718Z,102656.95
2023-04-16T09:02:28.565Z,102655.45
2023-04-16T09:05:00.186Z,102658.44
2023-04-16T09:07:29.875Z,102659.42
2023-04-16T09:09:59.941Z,102662.75
2023-04-16T09:12:28.167Z,102663.91
2023-04-16T09:14:57.450Z,102663.45
2023-04-16T09:17:25.444Z,102666.39
2023-04-16T09:19:54.645Z,102670.75
2023-04-16T09:22:22.898Z,102673.49
2023-04-16T09:24:50.797Z,102678.41
2023-04-16T09:27:19.255Z,102674.54
2023-04-16T09:29:47.085Z,102668.13
2023-04-16T09:32:15.132Z,102666.56
2023-04-16T09:35:00.829Z,102667.85
2023-04-16T09:37:30.801Z,102675.59
2023-04-16T09:40:04.119Z,102677.60
2023-04-16T09:42:34.493Z,102679.23
2023-04-16T09:45:05.119Z,102677.82
2023-04-16T09:47:44.472Z,102679.64
2023-04-16T09:50:18.936Z,102685.09
2023-04-16T09:52:51.772Z,102682.57
2023-04-16T09:55:27.112Z,102683.84
2023-04-16T09:58:02.286Z,102684.56
2023-04-16T10:00:31.720Z,102680.06
2023-04-16T10:03:08.883Z,102683.84
2023-04-16T10:54:03.518Z,102652.66
2023-04-16T10:56:33.525Z,102652.12
2023-04-16T10:59:04.479Z,102658.29
2023-04-16T11:01:35.099Z,102660.11
2023-04-16T11:04:21.627Z,102662.24
2023-04-16T11:07:14.753Z,102661.59
2023-04-16T11:10:04.585Z,102658.20
2023-04-16T11:12:35.691Z,102655.02
2023-04-16T11:15:06.766Z,102646.35
2023-04-16T11:17:40.201Z,102648.48
2023-04-16T11:20:20.955Z,102642.91
2023-04-16T11:22:54.668Z,102645.96
2023-04-16T11:25:26.623Z,102642.28
2023-04-16T11:27:54.916Z,102644.85
2023-04-16T11:30:34.739Z,102642.40
2023-04-16T11:33:09.387Z,102646.54
2023-04-16T11:35:39.651Z,102646.16
2023-04-16T11:38:07.840Z,102646.48
2023-04-16T11:40:36.542Z,102646.56
2023-04-16T11:43:22.849Z,102648.64
2023-04-16T11:46:13.245Z,102646.98
2023-04-16T11:48:49.138Z,102642.20
2023-04-16T11:51:18.462Z,102641.20
2023-04-16T11:53:56.350Z,102641.52
2023-04-16T11:56:29.419Z,102642.66
2023-04-16T11:59:11.531Z,102641.60
2023-04-16T12:01:42.829Z,102644.11
2023-04-16T12:04:14.547Z,102645.27
2023-04-16T12:07:11.056Z,102647.61
2023-04-16T12:09:41.502Z,102646.32
2023-04-16T12:12:35.864Z,102645.38
2023-04-16T12:15:04.784Z,102644.27
2023-04-16T12:17:34.327Z,102640.48
2023-04-16T12:20:07.957Z,102643.39
2023-04-16T12:22:38.088Z,102643.60
2023-04-16T12:25:14.917Z,102643.66
2023-04-16T12:27:49.095Z,102638.33
2023-04-16T12:30:22.587Z,102642.42
2023-04-16T12:32:52.673Z,102641.90
2023-04-16T12:35:31.852Z,102639.06
2023-04-16T12:38:01.022Z,102636.02
2023-04-16T12:40:29.205Z,102632.44
2023-04-16T12:42:57.605Z,102637.73
2023-04-16T12:45:26.095Z,102636.26
2023-04-16T12:47:54.360Z,102632.09
2023-04-16T12:50:22.612Z,102631.02
2023-04-16T12:52:50.999Z,102628.83
2023-04-16T12:55:19.155Z,102630.48
2023-04-16T12:57:49.102Z,102627.83
2023-04-16T13:00:17.390Z,102628.70
2023-04-16T13:02:45.967Z,102626.92
2023-04-16T13:05:16.783Z,102630.53
2023-04-16T13:07:44.827Z,102628.76
2023-04-16T13:10:13.764Z,102623.75
2023-04-16T13:12:41.866Z,102626.46
2023-04-16T13:15:10.740Z,102621.14
2023-04-16T13:17:38.598Z,102623.34
2023-04-16T13:20:07.891Z,102617.64
2023-04-16T13:22:36.049Z,102616.39
2023-04-16T13:25:04.608Z,102620.73
2023-04-16T13:27:32.763Z,102618.85
2023-04-16T13:30:00.998Z,102617.20
2023-04-16T13:32:29.610Z,102612.46
2023-04-16T13:34:57.769Z,102609.76
2023-04-16T13:37:25.918Z,102611.80
2023-04-16T13:39:53.840Z,102607.45
2023-04-16T13:42:22.276Z,102604.86
2023-04-16T13:44:53.222Z,102608.34
2023-04-16T13:47:21.387Z,102604.95
2023-04-16T13:49:49.430Z,102605.64
2023-04-16T13:52:17.387Z,102604.34
2023-04-16T13:54:45.377Z,102601.58
2023-04-16T13:57:20.329Z,102597.73
2023-04-16T13:59:48.346Z,102594.66
2023-04-16T14:02:16.573Z,102594.45
2023-04-16T14:04:44.750Z,102591.89
2023-04-16T14:07:13.046Z,102587.89
2023-04-16T14:09:41.185Z,102587.15
2023-04-16T14:12:09.251Z,102582.12
2023-04-16T14:14:37.316Z,102582.59
2023-04-16T14:17:05.430Z,102580.83
2023-04-16T14:19:33.462Z,102578.08
2023-04-16T14:22:01.365Z,102571.93
2023-04-16T14:24:29.385Z,102570.21
2023-04-16T14:26:57.361Z,102569.48
2023-04-16T14:29:25.327Z,102566.63
2023-04-16T14:31:53.433Z,102564.99
2023-04-16T14:34:21.294Z,102565.71
2023-04-16T14:36:50.444Z,102567.90
2023-04-16T14:39:18.634Z,102563.52
2023-04-16T14:41:46.603Z,102564.22
2023-04-16T14:44:14.923Z,102557.27
2023-04-16T14:46:43.985Z,102559.92
2023-04-16T14:49:12.508Z,102558.14
2023-04-16T14:51:41.380Z,102557.17
2023-04-16T14:54:09.932Z,102560.56
2023-04-16T14:56:38.082Z,102566.21
2023-04-16T14:59:06.868Z,102560.80
2023-04-16T15:01:36.278Z,102560.15
2023-04-16T15:04:04.635Z,102559.95
2023-04-16T15:06:33.665Z,102560.15
2023-04-16T15:09:01.736Z,102562.33
2023-04-16T15:11:30.324Z,102556.49
2023-04-16T15:13:58.288Z,102554.45
2023-04-16T15:16:26.720Z,102554.68
2023-04-16T15:18:54.739Z,102556.90
2023-04-16T15:21:22.682Z,102558.67
2023-04-16T15:23:50.685Z,102558.11
2023-04-16T15:26:18.648Z,102552.54
2023-04-16T15:28:46.571Z,102553.61
2023-04-16T15:31:14.664Z,102554.15
2023-04-16T15:33:42.649Z,102552.11
2023-04-16T15:36:11.466Z,102548.44
2023-04-16T15:38:39.510Z,102548.00
2023-04-16T15:41:09.710Z,102544.93
2023-04-16T15:43:37.846Z,102544.08
2023-04-16T15:46:06.832Z,102541.34
2023-04-16T15:48:34.879Z,102536.96
2023-04-16T15:51:02.912Z,102535.61
2023-04-16T15:53:31.359Z,102533.73
2023-04-16T15:56:01.032Z,102537.03
2023-04-16T15:58:28.947Z,102533.29
2023-04-16T16:00:56.904Z,102532.01
2023-04-16T16:03:25.013Z,102532.91
2023-04-16T16:05:53.328Z,102534.48
2023-04-16T16:08:21.605Z,102535.33
2023-04-16T16:10:49.507Z,102534.05
2023-04-16T16:13:18.553Z,102532.35
2023-04-16T16:15:46.607Z,102532.74
2023-04-16T16:18:14.502Z,102528.36
2023-04-16T16:20:42.435Z,102524.55
2023-04-16T16:23:10.635Z,102524.13
2023-04-16T16:25:38.605Z,102520.66
2023-04-16T16:28:06.797Z,102521.94
2023-04-16T16:30:35.050Z,102523.11
2023-04-16T16:33:03.048Z,102516.67
2023-04-16T16:35:31.606Z,102520.20
2023-04-16T16:37:59.675Z,102518.02
2023-04-16T16:40:28.462Z,102521.68
2023-04-16T16:42:57.083Z,102519.10
2023-04-16T16:45:27.135Z,102519.96
2023-04-16T16:47:55.704Z,102516.45
2023-04-16T16:50:23.617Z,102514.77
2023-04-16T16:52:51.900Z,102517.28
2023-04-16T16:55:21.014Z,102523.50
2023-04-16T16:57:49.463Z,102521.81
2023-04-16T17:00:20.286Z,102519.59
2023-04-16T17:02:51.359Z,102520.41
2023-04-16T17:05:20.028Z,102519.41
2023-04-16T17:07:48.725Z,102518.41
2023-04-16T17:10:21.159Z,102522.61
2023-04-16T17:12:50.693Z,102523.55
2023-04-16T17:15:21.428Z,102516.50
2023-04-16T17:17:49.934Z,102510.88
2023-04-16T17:20:18.188Z,102510.95
2023-04-16T17:22:46.034Z,102513.09
2023-04-16T17:25:14.126Z,102511.84
2023-04-16T17:27:42.123Z,102513.54
2023-04-16T17:30:10.554Z,102513.55
2023-04-16T17:32:38.671Z,102514.60
2023-04-16T17:35:09.008Z,102520.98
2023-04-16T17:37:36.976Z,102521.98
2023-04-16T17:40:07.616Z,102521.45
2023-04-16T17:42:36.360Z,102521.36
2023-04-16T17:45:04.859Z,102524.60
2023-04-16T17:47:36.011Z,102521.10
2023-04-16T17:50:04.888Z,102519.05
2023-04-16T17:52:33.234Z,102513.95
2023-04-16T17:55:01.796Z,102511.89
2023-04-16T17:57:30.121Z,102509.81
2023-04-16T17:59:58.388Z,102513.46
2023-04-16T18:02:26.665Z,102517.20
2023-04-16T18:04:55.086Z,102520.57
2023-04-16T18:07:23.335Z,102519.23
2023-04-16T18:09:51.419Z,102517.49
2023-04-16T18:12:19.409Z,102518.84
2023-04-16T18:14:47.432Z,102518.40
2023-04-16T18:17:15.717Z,102517.63
2023-04-16T18:19:44.523Z,102521.85
2023-04-16T18:22:13.361Z,102522.90
2023-04-16T18:24:41.476Z,102523.86
2023-04-16T18:27:09.398Z,102525.11
2023-04-16T18:29:39.026Z,102524.07
2023-04-16T18:32:11.770Z,102524.25
2023-04-16T18:34:40.279Z,102522.36
2023-04-16T18:37:09.194Z,102522.46
2023-04-16T18:39:37.436Z,102522.52
2023-04-16T18:42:05.721Z,102520.78
2023-04-16T18:44:34.010Z,102523.15
2023-04-16T18:47:02.183Z,102523.00
2023-04-16T18:49:30.548Z,102523.36
2023-04-16T18:51:58.529Z,102524.81
2023-04-16T18:54:27.717Z,102526.05
2023-04-16T18:56:57.407Z,102522.86
2023-04-16T18:59:29.494Z,102521.05
2023-04-16T19:01:57.470Z,102517.52
2023-04-16T19:04:25.992Z,102522.68
2023-04-16T19:06:54.121Z,102522.86
2023-04-16T19:09:22.198Z,102518.77
2023-04-16T19:11:50.751Z,102520.31
2023-04-16T19:14:18.864Z,102521.70
2023-04-16T19:16:47.559Z,102523.84
2023-04-16T19:19:17.762Z,102520.91
2023-04-16T19:21:45.933Z,102527.90
2023-04-16T19:24:13.912Z,102532.20
2023-04-16T19:26:41.895Z,102531.13
2023-04-16T19:29:09.954Z,102530.72
2023-04-16T19:31:38.133Z,102534.69
2023-04-16T19:34:06.364Z,102534.66
2023-04-16T19:36:34.584Z,102533.61
2023-04-16T19:39:02.457Z,102536.31
2023-04-16T19:41:30.395Z,102535.42
2023-04-16T19:43:58.341Z,102536.65
2023-04-16T19:46:26.640Z,102535.20
2023-04-16T19:48:54.605Z,102540.61
2023-04-16T19:51:22.908Z,102543.24
2023-04-16T19:53:51.857Z,102544.00
2023-04-16T19:56:19.900Z,102543.57
2023-04-16T19:58:47.965Z,102544.70
2023-04-16T20:01:19.297Z,102548.31
2023-04-16T20:03:47.357Z,102548.11
2023-04-16T20:06:17.638Z,102549.45
2023-04-16T20:08:45.880Z,102550.41
2023-04-16T20:11:14.216Z,102548.73
2023-04-16T20:13:43.315Z,102548.45
2023-04-16T20:16:13.765Z,102547.27
2023-04-16T20:18:42.764Z,102541.13
2023-04-16T20:21:11.206Z,102540.20
2023-04-16T20:23:39.276Z,102535.34
2023-04-16T20:26:07.457Z,102539.95
2023-04-16T20:28:36.353Z,102538.55
2023-04-16T20:31:04.327Z,102539.23
2023-04-16T20:33:32.220Z,102532.38
2023-04-16T20:36:00.258Z,102533.46
2023-04-16T20:38:32.241Z,102532.52
2023-04-16T20:41:10.121Z,102529.93
2023-04-16T20:43:41.125Z,102534.96
2023-04-16T20:46:10.877Z,102532.73
2023-04-16T20:48:39.242Z,102538.06
2023-04-16T20:51:09.787Z,102537.32
2023-04-16T20:53:38.453Z,102539.09
2023-04-16T20:56:08.417Z,102535.48
2023-04-16T20:58:36.327Z,102528.65
2023-04-16T21:01:06.098Z,102529.05
2023-04-16T21:03:34.523Z,102534.45
2023-04-16T21:06:03.727Z,102529.17
2023-04-16T21:08:31.796Z,102530.16
2023-04-16T21:10:59.645Z,102530.98
2023-04-16T21:13:27.635Z,102535.30
2023-04-16T21:15:55.854Z,102538.38
2023-04-16T21:18:24.192Z,102532.86
2023-04-16T21:20:52.284Z,102529.23
2023-04-16T21:23:20.442Z,102524.23
2023-04-16T21:25:48.403Z,102521.34
2023-04-16T21:28:16.335Z,102521.63
2023-04-16T21:30:44.342Z,102515.51
2023-04-16T21:33:13.131Z,102516.27
2023-04-16T21:35:41.103Z,102515.60
2023-04-16T21:38:09.060Z,102515.44
2023-04-16T21:40:36.925Z,102514.19
2023-04-16T21:43:05.001Z,102512.73
2023-04-16T21:45:33.176Z,102513.58
2023-04-16T21:48:01.656Z,102513.46
2023-04-16T21:50:30.246Z,102512.59
2023-04-16T21:53:00.801Z,102516.51
2023-04-16T21:55:28.837Z,102516.27
2023-04-16T21:57:56.865Z,102519.59
2023-04-16T22:00:25.061Z,102520.11
2023-04-16T22:02:55.919Z,102521.47
2023-04-16T22:05:24.369Z,102516.61
2023-04-16T22:07:53.243Z,102520.35
2023-04-16T22:10:21.304Z,102524.76
2023-04-16T22:12:55.379Z,102522.80
2023-04-16T22:15:23.427Z,102525.91
2023-04-16T22:17:51.965Z,102524.47
2023-04-16T22:20:22.455Z,102524.60
2023-04-16T22:22:52.818Z,102520.95
2023-04-16T22:25:20.851Z,102518.82
2023-04-16T22:27:50.689Z,102518.42
2023-04-16T22:30:18.921Z,102517.28
2023-04-16T22:32:47.405Z,102518.26
2023-04-16T22:35:15.578Z,102520.23
2023-04-16T22:37:43.646Z,102515.66
2023-04-16T22:40:18.215Z,102512.20
2023-04-16T22:42:46.331Z,102510.30
2023-04-16T22:45:14.346Z,102510.98
2023-04-16T22:47:43.259Z,102507.39
2023-04-16T22:50:11.844Z,102512.46
2023-04-16T22:52:40.353Z,102513.30
2023-04-16T22:55:09.962Z,102508.77
2023-04-16T22:57:38.061Z,102512.23
2023-04-16T23:00:15.746Z,102509.51
2023-04-16T23:02:44.940Z,102505.92
2023-04-16T23:05:13.104Z,102506.23
2023-04-16T23:07:41.413Z,102501.73
2023-04-16T23:10:09.566Z,102501.46
2023-04-16T23:12:37.707Z,102503.16
2023-04-16T23:15:06.749Z,102500.58
2023-04-16T23:17:35.368Z,102501.05
2023-04-16T23:20:07.551Z,102499.83
2023-04-16T23:22:36.165Z,102500.94
2023-04-16T23:25:04.532Z,102498.23
2023-04-16T23:27:32.581Z,102500.23
2023-04-16T23:30:00.785Z,102503.66
2023-04-16T23:32:28.933Z,102503.05
2023-04-16T23:34:57.024Z,102499.55
2023-04-16T23:37:25.127Z,102495.95
2023-04-16T23:39:53.294Z,102498.48
2023-04-16T23:42:21.189Z,102496.70
2023-04-16T23:44:49.178Z,102491.45
2023-04-16T23:47:17.556Z,102491.39
2023-04-16T23:49:45.635Z,102491.27
2023-04-16T23:52:15.842Z,102488.69
2023-04-16T23:54:43.794Z,102485.50
2023-04-16T23:57:12.134Z,102483.17
2023-04-16T23:59:40.068Z,102484.49
